sensor_id;sensor_type;location;lat;lon;timestamp;temperature;humidity
31967;DHT22;18496;52.042;6.812;2023-06-19T00:01:05;28.30;51.90
31967;DHT22;18496;52.042;6.812;2023-06-19T00:03:08;28.30;52.20
31967;DHT22;18496;52.042;6.812;2023-06-19T00:05:12;28.30;52.20
31967;DHT22;18496;52.042;6.812;2023-06-19T00:07:16;28.30;52.30
31967;DHT22;18496;52.042;6.812;2023-06-19T00:09:20;28.20;52.40
31967;DHT22;18496;52.042;6.812;2023-06-19T00:11:24;28.20;52.50
31967;DHT22;18496;52.042;6.812;2023-06-19T00:13:27;28.30;52.40
31967;DHT22;18496;52.042;6.812;2023-06-19T00:15:31;28.30;52.50
31967;DHT22;18496;52.042;6.812;2023-06-19T00:17:35;28.40;52.50
31967;DHT22;18496;52.042;6.812;2023-06-19T00:19:40;28.40;52.50
31967;DHT22;18496;52.042;6.812;2023-06-19T00:21:44;28.30;52.60
31967;DHT22;18496;52.042;6.812;2023-06-19T00:23:49;28.30;52.60
31967;DHT22;18496;52.042;6.812;2023-06-19T00:25:52;28.30;52.90
31967;DHT22;18496;52.042;6.812;2023-06-19T00:27:56;28.30;52.60
31967;DHT22;18496;52.042;6.812;2023-06-19T00:30:00;28.30;52.80
31967;DHT22;18496;52.042;6.812;2023-06-19T00:32:05;28.30;52.90
31967;DHT22;18496;52.042;6.812;2023-06-19T00:34:09;28.30;52.90
31967;DHT22;18496;52.042;6.812;2023-06-19T00:36:15;28.30;53.30
31967;DHT22;18496;52.042;6.812;2023-06-19T00:38:18;28.40;53.10
31967;DHT22;18496;52.042;6.812;2023-06-19T00:40:34;28.40;52.90
31967;DHT22;18496;52.042;6.812;2023-06-19T00:42:38;28.30;53.30
31967;DHT22;18496;52.042;6.812;2023-06-19T00:44:41;28.20;53.50
31967;DHT22;18496;52.042;6.812;2023-06-19T00:46:45;28.00;53.90
31967;DHT22;18496;52.042;6.812;2023-06-19T00:48:49;27.90;54.10
31967;DHT22;18496;52.042;6.812;2023-06-19T00:50:53;27.80;54.60
31967;DHT22;18496;52.042;6.812;2023-06-19T00:52:57;27.70;54.80
31967;DHT22;18496;52.042;6.812;2023-06-19T00:55:01;27.70;55.10
31967;DHT22;18496;52.042;6.812;2023-06-19T00:57:07;27.60;55.20
31967;DHT22;18496;52.042;6.812;2023-06-19T00:59:15;27.50;55.50
31967;DHT22;18496;52.042;6.812;2023-06-19T01:01:21;27.50;55.80
31967;DHT22;18496;52.042;6.812;2023-06-19T01:03:27;27.50;55.90
31967;DHT22;18496;52.042;6.812;2023-06-19T01:05:30;27.50;56.00
31967;DHT22;18496;52.042;6.812;2023-06-19T01:08:26;27.50;56.10
31967;DHT22;18496;52.042;6.812;2023-06-19T01:10:28;27.40;56.30
31967;DHT22;18496;52.042;6.812;2023-06-19T01:12:38;27.30;56.40
31967;DHT22;18496;52.042;6.812;2023-06-19T01:14:53;27.30;56.80
31967;DHT22;18496;52.042;6.812;2023-06-19T01:16:58;27.20;56.90
31967;DHT22;18496;52.042;6.812;2023-06-19T01:19:04;27.20;57.00
31967;DHT22;18496;52.042;6.812;2023-06-19T01:21:14;27.10;57.20
31967;DHT22;18496;52.042;6.812;2023-06-19T01:23:18;27.00;57.40
31967;DHT22;18496;52.042;6.812;2023-06-19T01:25:25;26.90;57.50
31967;DHT22;18496;52.042;6.812;2023-06-19T01:27:29;26.90;57.70
31967;DHT22;18496;52.042;6.812;2023-06-19T01:29:37;26.90;57.90
31967;DHT22;18496;52.042;6.812;2023-06-19T01:31:55;26.90;57.90
31967;DHT22;18496;52.042;6.812;2023-06-19T01:34:04;26.80;57.70
31967;DHT22;18496;52.042;6.812;2023-06-19T01:36:09;26.80;57.90
31967;DHT22;18496;52.042;6.812;2023-06-19T01:38:13;26.80;57.90
31967;DHT22;18496;52.042;6.812;2023-06-19T01:40:18;26.70;58.00
31967;DHT22;18496;52.042;6.812;2023-06-19T01:42:26;26.70;58.10
31967;DHT22;18496;52.042;6.812;2023-06-19T01:44:30;26.60;58.10
31967;DHT22;18496;52.042;6.812;2023-06-19T01:46:34;26.60;58.20
31967;DHT22;18496;52.042;6.812;2023-06-19T01:48:41;26.60;58.30
31967;DHT22;18496;52.042;6.812;2023-06-19T01:50:48;26.50;58.50
31967;DHT22;18496;52.042;6.812;2023-06-19T01:52:52;26.50;58.60
31967;DHT22;18496;52.042;6.812;2023-06-19T01:54:56;26.40;58.80
31967;DHT22;18496;52.042;6.812;2023-06-19T01:56:59;26.40;58.90
31967;DHT22;18496;52.042;6.812;2023-06-19T01:59:03;26.40;58.90
31967;DHT22;18496;52.042;6.812;2023-06-19T02:01:07;26.40;59.10
31967;DHT22;18496;52.042;6.812;2023-06-19T02:03:11;26.40;59.20
31967;DHT22;18496;52.042;6.812;2023-06-19T02:05:14;26.30;59.20
31967;DHT22;18496;52.042;6.812;2023-06-19T02:07:18;26.30;59.30
31967;DHT22;18496;52.042;6.812;2023-06-19T02:09:24;26.20;59.40
31967;DHT22;18496;52.042;6.812;2023-06-19T02:11:28;26.30;59.50
31967;DHT22;18496;52.042;6.812;2023-06-19T02:13:32;26.20;59.60
31967;DHT22;18496;52.042;6.812;2023-06-19T02:15:35;26.20;59.70
31967;DHT22;18496;52.042;6.812;2023-06-19T02:17:39;26.20;59.70
31967;DHT22;18496;52.042;6.812;2023-06-19T02:19:45;26.20;59.80
31967;DHT22;18496;52.042;6.812;2023-06-19T02:21:49;26.10;59.90
31967;DHT22;18496;52.042;6.812;2023-06-19T02:23:53;26.00;60.00
31967;DHT22;18496;52.042;6.812;2023-06-19T02:25:56;26.00;60.10
31967;DHT22;18496;52.042;6.812;2023-06-19T02:28:00;25.90;60.00
31967;DHT22;18496;52.042;6.812;2023-06-19T02:30:05;26.00;59.90
31967;DHT22;18496;52.042;6.812;2023-06-19T02:32:08;26.00;59.80
31967;DHT22;18496;52.042;6.812;2023-06-19T02:34:12;25.90;59.70
31967;DHT22;18496;52.042;6.812;2023-06-19T02:36:16;25.90;59.70
31967;DHT22;18496;52.042;6.812;2023-06-19T02:38:23;25.90;59.80
31967;DHT22;18496;52.042;6.812;2023-06-19T02:40:27;25.90;59.90
31967;DHT22;18496;52.042;6.812;2023-06-19T02:42:31;25.90;59.90
31967;DHT22;18496;52.042;6.812;2023-06-19T02:44:34;25.80;59.90
31967;DHT22;18496;52.042;6.812;2023-06-19T02:46:39;25.80;60.20
31967;DHT22;18496;52.042;6.812;2023-06-19T02:48:43;25.80;60.40
31967;DHT22;18496;52.042;6.812;2023-06-19T02:50:47;25.70;60.70
31967;DHT22;18496;52.042;6.812;2023-06-19T02:52:50;25.60;61.20
31967;DHT22;18496;52.042;6.812;2023-06-19T02:54:54;25.60;61.70
31967;DHT22;18496;52.042;6.812;2023-06-19T02:56:58;25.50;62.10
31967;DHT22;18496;52.042;6.812;2023-06-19T02:59:03;25.40;62.60
31967;DHT22;18496;52.042;6.812;2023-06-19T03:01:07;25.30;63.20
31967;DHT22;18496;52.042;6.812;2023-06-19T03:03:12;25.30;64.00
31967;DHT22;18496;52.042;6.812;2023-06-19T03:05:15;25.20;64.50
31967;DHT22;18496;52.042;6.812;2023-06-19T03:07:20;25.10;64.80
31967;DHT22;18496;52.042;6.812;2023-06-19T03:09:24;25.10;65.20
31967;DHT22;18496;52.042;6.812;2023-06-19T03:11:29;25.10;65.30
31967;DHT22;18496;52.042;6.812;2023-06-19T03:15:47;25.10;65.20
31967;DHT22;18496;52.042;6.812;2023-06-19T03:17:54;25.00;65.20
31967;DHT22;18496;52.042;6.812;2023-06-19T03:20:00;25.00;65.40
31967;DHT22;18496;52.042;6.812;2023-06-19T03:22:04;25.00;65.50
31967;DHT22;18496;52.042;6.812;2023-06-19T03:24:09;25.00;65.80
31967;DHT22;18496;52.042;6.812;2023-06-19T03:26:15;24.90;65.90
31967;DHT22;18496;52.042;6.812;2023-06-19T03:28:19;24.90;66.30
31967;DHT22;18496;52.042;6.812;2023-06-19T03:30:23;24.80;66.70
31967;DHT22;18496;52.042;6.812;2023-06-19T03:32:29;24.70;66.80
31967;DHT22;18496;52.042;6.812;2023-06-19T03:34:34;24.70;66.80
31967;DHT22;18496;52.042;6.812;2023-06-19T03:36:41;24.70;66.80
31967;DHT22;18496;52.042;6.812;2023-06-19T03:38:48;24.80;66.90
31967;DHT22;18496;52.042;6.812;2023-06-19T03:40:54;24.80;66.60
31967;DHT22;18496;52.042;6.812;2023-06-19T03:42:58;24.80;66.60
31967;DHT22;18496;52.042;6.812;2023-06-19T03:45:02;24.80;66.50
31967;DHT22;18496;52.042;6.812;2023-06-19T03:47:07;24.70;66.60
31967;DHT22;18496;52.042;6.812;2023-06-19T03:49:10;24.70;66.80
31967;DHT22;18496;52.042;6.812;2023-06-19T03:51:14;24.70;66.90
31967;DHT22;18496;52.042;6.812;2023-06-19T03:53:18;24.70;66.90
31967;DHT22;18496;52.042;6.812;2023-06-19T03:55:22;24.70;66.90
31967;DHT22;18496;52.042;6.812;2023-06-19T03:57:27;24.80;67.00
31967;DHT22;18496;52.042;6.812;2023-06-19T03:59:30;24.70;67.20
31967;DHT22;18496;52.042;6.812;2023-06-19T04:01:35;24.70;67.40
31967;DHT22;18496;52.042;6.812;2023-06-19T04:03:39;24.70;67.60
31967;DHT22;18496;52.042;6.812;2023-06-19T04:05:43;24.70;67.90
31967;DHT22;18496;52.042;6.812;2023-06-19T04:07:49;24.60;68.10
31967;DHT22;18496;52.042;6.812;2023-06-19T04:09:53;24.60;68.30
31967;DHT22;18496;52.042;6.812;2023-06-19T04:11:56;24.60;68.70
31967;DHT22;18496;52.042;6.812;2023-06-19T04:14:01;24.50;69.10
31967;DHT22;18496;52.042;6.812;2023-06-19T04:16:06;24.40;69.30
31967;DHT22;18496;52.042;6.812;2023-06-19T04:18:10;24.40;69.80
31967;DHT22;18496;52.042;6.812;2023-06-19T04:20:14;24.30;70.10
31967;DHT22;18496;52.042;6.812;2023-06-19T04:22:18;24.30;70.30
31967;DHT22;18496;52.042;6.812;2023-06-19T04:24:22;24.30;70.60
31967;DHT22;18496;52.042;6.812;2023-06-19T04:26:26;24.30;70.70
31967;DHT22;18496;52.042;6.812;2023-06-19T04:28:29;24.30;70.90
31967;DHT22;18496;52.042;6.812;2023-06-19T04:30:33;24.20;71.10
31967;DHT22;18496;52.042;6.812;2023-06-19T04:32:37;24.20;71.40
31967;DHT22;18496;52.042;6.812;2023-06-19T04:34:43;24.10;71.80
31967;DHT22;18496;52.042;6.812;2023-06-19T04:36:49;24.00;72.10
31967;DHT22;18496;52.042;6.812;2023-06-19T04:38:53;24.00;72.40
31967;DHT22;18496;52.042;6.812;2023-06-19T04:40:56;24.00;72.60
31967;DHT22;18496;52.042;6.812;2023-06-19T04:43:04;23.90;72.90
31967;DHT22;18496;52.042;6.812;2023-06-19T04:45:09;23.90;73.30
31967;DHT22;18496;52.042;6.812;2023-06-19T04:47:14;23.80;73.60
31967;DHT22;18496;52.042;6.812;2023-06-19T04:49:19;23.80;73.80
31967;DHT22;18496;52.042;6.812;2023-06-19T04:51:23;23.80;74.20
31967;DHT22;18496;52.042;6.812;2023-06-19T04:53:27;23.70;74.50
31967;DHT22;18496;52.042;6.812;2023-06-19T04:55:31;23.60;74.90
31967;DHT22;18496;52.042;6.812;2023-06-19T04:57:36;23.60;75.10
31967;DHT22;18496;52.042;6.812;2023-06-19T04:59:41;23.60;75.40
31967;DHT22;18496;52.042;6.812;2023-06-19T05:01:51;23.60;75.90
31967;DHT22;18496;52.042;6.812;2023-06-19T05:03:57;23.50;76.10
31967;DHT22;18496;52.042;6.812;2023-06-19T05:06:02;23.50;76.10
31967;DHT22;18496;52.042;6.812;2023-06-19T05:08:06;23.60;76.30
31967;DHT22;18496;52.042;6.812;2023-06-19T05:10:10;23.60;76.30
31967;DHT22;18496;52.042;6.812;2023-06-19T05:12:17;23.60;76.10
31967;DHT22;18496;52.042;6.812;2023-06-19T05:14:20;23.70;75.90
31967;DHT22;18496;52.042;6.812;2023-06-19T05:16:24;23.70;75.80
31967;DHT22;18496;52.042;6.812;2023-06-19T05:18:28;23.70;75.80
31967;DHT22;18496;52.042;6.812;2023-06-19T05:20:31;23.70;75.70
31967;DHT22;18496;52.042;6.812;2023-06-19T05:22:35;23.70;75.90
31967;DHT22;18496;52.042;6.812;2023-06-19T05:24:40;23.70;75.90
31967;DHT22;18496;52.042;6.812;2023-06-19T05:26:43;23.70;76.20
31967;DHT22;18496;52.042;6.812;2023-06-19T05:28:47;23.60;76.50
31967;DHT22;18496;52.042;6.812;2023-06-19T05:30:51;23.50;76.70
31967;DHT22;18496;52.042;6.812;2023-06-19T05:32:55;23.60;77.00
31967;DHT22;18496;52.042;6.812;2023-06-19T05:34:59;23.60;76.90
31967;DHT22;18496;52.042;6.812;2023-06-19T05:37:03;23.60;77.00
31967;DHT22;18496;52.042;6.812;2023-06-19T05:39:07;23.60;76.90
31967;DHT22;18496;52.042;6.812;2023-06-19T05:41:11;23.60;76.90
31967;DHT22;18496;52.042;6.812;2023-06-19T05:43:15;23.50;77.30
31967;DHT22;18496;52.042;6.812;2023-06-19T05:45:21;23.40;77.70
31967;DHT22;18496;52.042;6.812;2023-06-19T05:47:24;23.40;78.10
31967;DHT22;18496;52.042;6.812;2023-06-19T05:49:29;23.30;78.30
31967;DHT22;18496;52.042;6.812;2023-06-19T05:51:32;23.30;78.60
31967;DHT22;18496;52.042;6.812;2023-06-19T05:53:36;23.30;78.90
31967;DHT22;18496;52.042;6.812;2023-06-19T05:55:42;23.30;79.00
31967;DHT22;18496;52.042;6.812;2023-06-19T05:57:46;23.30;79.00
31967;DHT22;18496;52.042;6.812;2023-06-19T05:59:50;23.30;79.00
31967;DHT22;18496;52.042;6.812;2023-06-19T06:01:54;23.40;79.00
31967;DHT22;18496;52.042;6.812;2023-06-19T06:03:59;23.40;79.10
31967;DHT22;18496;52.042;6.812;2023-06-19T06:06:05;23.40;79.00
31967;DHT22;18496;52.042;6.812;2023-06-19T06:08:08;23.50;79.10
31967;DHT22;18496;52.042;6.812;2023-06-19T06:10:13;23.50;79.00
31967;DHT22;18496;52.042;6.812;2023-06-19T06:12:17;23.60;79.10
31967;DHT22;18496;52.042;6.812;2023-06-19T06:14:21;23.50;79.00
31967;DHT22;18496;52.042;6.812;2023-06-19T06:16:25;23.40;79.40
31967;DHT22;18496;52.042;6.812;2023-06-19T06:18:29;23.40;79.70
31967;DHT22;18496;52.042;6.812;2023-06-19T06:20:33;23.30;79.80
31967;DHT22;18496;52.042;6.812;2023-06-19T06:22:40;23.40;80.00
31967;DHT22;18496;52.042;6.812;2023-06-19T06:24:44;23.40;80.20
31967;DHT22;18496;52.042;6.812;2023-06-19T06:26:50;23.40;80.40
31967;DHT22;18496;52.042;6.812;2023-06-19T06:28:54;23.40;80.10
31967;DHT22;18496;52.042;6.812;2023-06-19T06:30:59;23.50;80.10
31967;DHT22;18496;52.042;6.812;2023-06-19T06:33:02;23.50;80.00
31967;DHT22;18496;52.042;6.812;2023-06-19T06:35:07;23.50;80.10
31967;DHT22;18496;52.042;6.812;2023-06-19T06:37:10;23.40;80.30
31967;DHT22;18496;52.042;6.812;2023-06-19T06:39:14;23.40;80.50
31967;DHT22;18496;52.042;6.812;2023-06-19T06:41:18;23.30;80.80
31967;DHT22;18496;52.042;6.812;2023-06-19T06:43:22;23.30;80.90
31967;DHT22;18496;52.042;6.812;2023-06-19T06:45:26;23.20;81.30
31967;DHT22;18496;52.042;6.812;2023-06-19T06:47:29;23.20;81.50
31967;DHT22;18496;52.042;6.812;2023-06-19T06:49:33;23.20;81.50
31967;DHT22;18496;52.042;6.812;2023-06-19T06:51:39;23.20;81.50
31967;DHT22;18496;52.042;6.812;2023-06-19T06:53:43;23.20;81.60
31967;DHT22;18496;52.042;6.812;2023-06-19T06:55:47;23.20;81.80
31967;DHT22;18496;52.042;6.812;2023-06-19T06:57:51;23.20;81.80
31967;DHT22;18496;52.042;6.812;2023-06-19T06:59:54;23.40;81.80
31967;DHT22;18496;52.042;6.812;2023-06-19T07:01:58;23.40;81.70
31967;DHT22;18496;52.042;6.812;2023-06-19T07:04:02;23.40;81.80
31967;DHT22;18496;52.042;6.812;2023-06-19T07:06:06;23.30;81.80
31967;DHT22;18496;52.042;6.812;2023-06-19T07:08:09;23.30;82.00
31967;DHT22;18496;52.042;6.812;2023-06-19T07:10:13;23.40;81.70
31967;DHT22;18496;52.042;6.812;2023-06-19T07:12:17;23.40;81.90
31967;DHT22;18496;52.042;6.812;2023-06-19T07:14:21;23.40;82.00
31967;DHT22;18496;52.042;6.812;2023-06-19T07:16:25;23.50;81.70
31967;DHT22;18496;52.042;6.812;2023-06-19T07:18:28;23.50;81.60
31967;DHT22;18496;52.042;6.812;2023-06-19T07:20:32;23.60;81.50
31967;DHT22;18496;52.042;6.812;2023-06-19T07:22:35;23.60;80.90
31967;DHT22;18496;52.042;6.812;2023-06-19T07:24:42;23.60;80.90
31967;DHT22;18496;52.042;6.812;2023-06-19T07:26:46;23.60;81.20
31967;DHT22;18496;52.042;6.812;2023-06-19T07:28:50;23.50;81.30
31967;DHT22;18496;52.042;6.812;2023-06-19T07:30:54;23.50;81.60
31967;DHT22;18496;52.042;6.812;2023-06-19T07:32:58;23.40;81.70
31967;DHT22;18496;52.042;6.812;2023-06-19T07:35:01;23.50;82.10
31967;DHT22;18496;52.042;6.812;2023-06-19T07:37:05;23.50;82.00
31967;DHT22;18496;52.042;6.812;2023-06-19T07:39:09;23.60;81.50
31967;DHT22;18496;52.042;6.812;2023-06-19T07:41:13;23.60;81.40
31967;DHT22;18496;52.042;6.812;2023-06-19T07:43:17;23.50;81.20
31967;DHT22;18496;52.042;6.812;2023-06-19T07:45:21;23.50;81.70
31967;DHT22;18496;52.042;6.812;2023-06-19T07:47:26;23.40;82.00
31967;DHT22;18496;52.042;6.812;2023-06-19T07:49:30;23.40;82.20
31967;DHT22;18496;52.042;6.812;2023-06-19T07:51:34;23.40;82.40
31967;DHT22;18496;52.042;6.812;2023-06-19T07:53:38;23.30;82.40
31967;DHT22;18496;52.042;6.812;2023-06-19T07:55:43;23.40;82.70
31967;DHT22;18496;52.042;6.812;2023-06-19T07:57:46;23.40;82.50
31967;DHT22;18496;52.042;6.812;2023-06-19T07:59:51;23.40;82.30
31967;DHT22;18496;52.042;6.812;2023-06-19T08:01:55;23.50;82.30
31967;DHT22;18496;52.042;6.812;2023-06-19T08:03:58;23.50;82.00
31967;DHT22;18496;52.042;6.812;2023-06-19T08:06:03;23.50;81.90
31967;DHT22;18496;52.042;6.812;2023-06-19T08:08:06;23.50;82.10
31967;DHT22;18496;52.042;6.812;2023-06-19T08:10:10;23.50;82.10
31967;DHT22;18496;52.042;6.812;2023-06-19T08:12:14;23.40;82.00
31967;DHT22;18496;52.042;6.812;2023-06-19T08:14:18;23.40;82.10
31967;DHT22;18496;52.042;6.812;2023-06-19T08:16:21;23.50;82.20
31967;DHT22;18496;52.042;6.812;2023-06-19T08:18:25;23.50;82.20
31967;DHT22;18496;52.042;6.812;2023-06-19T08:20:29;23.50;82.20
31967;DHT22;18496;52.042;6.812;2023-06-19T08:22:33;23.50;82.20
31967;DHT22;18496;52.042;6.812;2023-06-19T08:24:37;23.60;82.20
31967;DHT22;18496;52.042;6.812;2023-06-19T08:26:43;23.70;82.10
31967;DHT22;18496;52.042;6.812;2023-06-19T08:28:47;23.70;81.80
31967;DHT22;18496;52.042;6.812;2023-06-19T08:30:51;23.70;81.30
31967;DHT22;18496;52.042;6.812;2023-06-19T08:32:55;23.70;81.60
31967;DHT22;18496;52.042;6.812;2023-06-19T08:34:59;23.80;81.30
31967;DHT22;18496;52.042;6.812;2023-06-19T08:37:02;23.80;81.20
31967;DHT22;18496;52.042;6.812;2023-06-19T08:39:06;23.80;80.70
31967;DHT22;18496;52.042;6.812;2023-06-19T08:41:11;23.90;80.50
31967;DHT22;18496;52.042;6.812;2023-06-19T08:43:15;23.90;80.10
31967;DHT22;18496;52.042;6.812;2023-06-19T08:45:19;24.00;80.40
31967;DHT22;18496;52.042;6.812;2023-06-19T08:47:29;24.00;80.10
31967;DHT22;18496;52.042;6.812;2023-06-19T08:49:34;24.00;79.90
31967;DHT22;18496;52.042;6.812;2023-06-19T08:51:38;24.00;80.00
31967;DHT22;18496;52.042;6.812;2023-06-19T08:53:49;24.00;80.30
31967;DHT22;18496;52.042;6.812;2023-06-19T08:55:56;24.00;80.20
31967;DHT22;18496;52.042;6.812;2023-06-19T08:58:01;24.10;80.10
31967;DHT22;18496;52.042;6.812;2023-06-19T09:00:06;24.10;79.60
31967;DHT22;18496;52.042;6.812;2023-06-19T09:02:11;24.20;79.20
31967;DHT22;18496;52.042;6.812;2023-06-19T09:04:15;24.30;79.20
31967;DHT22;18496;52.042;6.812;2023-06-19T09:06:18;24.30;79.20
31967;DHT22;18496;52.042;6.812;2023-06-19T09:08:23;24.30;78.70
31967;DHT22;18496;52.042;6.812;2023-06-19T09:10:30;24.30;78.00
31967;DHT22;18496;52.042;6.812;2023-06-19T09:12:34;24.30;78.40
31967;DHT22;18496;52.042;6.812;2023-06-19T09:14:41;24.30;78.40
31967;DHT22;18496;52.042;6.812;2023-06-19T09:16:45;24.40;78.60
31967;DHT22;18496;52.042;6.812;2023-06-19T09:18:48;24.40;79.30
31967;DHT22;18496;52.042;6.812;2023-06-19T09:20:55;24.50;78.90
31967;DHT22;18496;52.042;6.812;2023-06-19T09:22:59;24.50;78.90
31967;DHT22;18496;52.042;6.812;2023-06-19T09:25:04;24.60;78.30
31967;DHT22;18496;52.042;6.812;2023-06-19T09:27:16;24.60;78.30
31967;DHT22;18496;52.042;6.812;2023-06-19T09:29:21;24.70;77.40
31967;DHT22;18496;52.042;6.812;2023-06-19T09:31:32;24.80;76.90
31967;DHT22;18496;52.042;6.812;2023-06-19T09:33:37;24.90;76.10
31967;DHT22;18496;52.042;6.812;2023-06-19T09:35:41;24.90;75.80
31967;DHT22;18496;52.042;6.812;2023-06-19T09:37:45;25.00;75.70
31967;DHT22;18496;52.042;6.812;2023-06-19T09:39:53;25.00;74.50
31967;DHT22;18496;52.042;6.812;2023-06-19T09:41:58;25.00;74.70
31967;DHT22;18496;52.042;6.812;2023-06-19T09:44:05;25.00;74.70
31967;DHT22;18496;52.042;6.812;2023-06-19T09:46:17;25.00;73.90
31967;DHT22;18496;52.042;6.812;2023-06-19T09:48:28;25.10;74.20
31967;DHT22;18496;52.042;6.812;2023-06-19T09:50:33;25.10;74.50
31967;DHT22;18496;52.042;6.812;2023-06-19T09:52:39;25.10;74.20
31967;DHT22;18496;52.042;6.812;2023-06-19T09:54:44;25.00;74.50
31967;DHT22;18496;52.042;6.812;2023-06-19T09:56:49;25.00;74.90
31967;DHT22;18496;52.042;6.812;2023-06-19T09:58:56;25.10;74.30
31967;DHT22;18496;52.042;6.812;2023-06-19T10:01:04;25.10;74.50
31967;DHT22;18496;52.042;6.812;2023-06-19T10:03:12;25.20;73.40
31967;DHT22;18496;52.042;6.812;2023-06-19T10:05:15;25.30;72.80
31967;DHT22;18496;52.042;6.812;2023-06-19T10:07:23;25.40;72.10
31967;DHT22;18496;52.042;6.812;2023-06-19T10:09:32;25.40;70.40
31967;DHT22;18496;52.042;6.812;2023-06-19T10:11:54;25.50;70.20
31967;DHT22;18496;52.042;6.812;2023-06-19T10:14:06;25.60;68.80
31967;DHT22;18496;52.042;6.812;2023-06-19T10:16:21;25.70;68.80
31967;DHT22;18496;52.042;6.812;2023-06-19T10:18:28;25.90;68.00
31967;DHT22;18496;52.042;6.812;2023-06-19T10:20:34;25.90;67.10
31967;DHT22;18496;52.042;6.812;2023-06-19T10:22:55;26.00;68.10
31967;DHT22;18496;52.042;6.812;2023-06-19T10:24:59;26.00;68.60
31967;DHT22;18496;52.042;6.812;2023-06-19T10:27:03;25.90;68.80
31967;DHT22;18496;52.042;6.812;2023-06-19T10:29:15;25.90;68.80
31967;DHT22;18496;52.042;6.812;2023-06-19T10:31:19;25.90;68.60
31967;DHT22;18496;52.042;6.812;2023-06-19T10:33:25;26.00;68.80
31967;DHT22;18496;52.042;6.812;2023-06-19T10:35:36;26.10;68.40
31967;DHT22;18496;52.042;6.812;2023-06-19T10:37:42;26.20;66.80
31967;DHT22;18496;52.042;6.812;2023-06-19T10:39:46;26.20;66.80
31967;DHT22;18496;52.042;6.812;2023-06-19T10:41:49;26.20;67.00
31967;DHT22;18496;52.042;6.812;2023-06-19T10:46:02;26.20;66.20
31967;DHT22;18496;52.042;6.812;2023-06-19T10:48:08;26.10;66.70
31967;DHT22;18496;52.042;6.812;2023-06-19T10:50:13;26.10;66.30
31967;DHT22;18496;52.042;6.812;2023-06-19T10:52:18;26.10;66.40
31967;DHT22;18496;52.042;6.812;2023-06-19T10:54:22;26.20;66.30
31967;DHT22;18496;52.042;6.812;2023-06-19T10:56:26;26.20;66.30
31967;DHT22;18496;52.042;6.812;2023-06-19T10:58:30;26.20;66.40
31967;DHT22;18496;52.042;6.812;2023-06-19T11:00:33;26.30;66.40
31967;DHT22;18496;52.042;6.812;2023-06-19T11:02:40;26.30;66.90
31967;DHT22;18496;52.042;6.812;2023-06-19T11:04:46;26.30;66.30
31967;DHT22;18496;52.042;6.812;2023-06-19T11:06:50;26.30;66.40
31967;DHT22;18496;52.042;6.812;2023-06-19T11:08:55;26.40;66.80
31967;DHT22;18496;52.042;6.812;2023-06-19T11:10:59;26.50;66.40
31967;DHT22;18496;52.042;6.812;2023-06-19T11:13:03;26.60;65.60
31967;DHT22;18496;52.042;6.812;2023-06-19T11:15:07;26.70;65.90
31967;DHT22;18496;52.042;6.812;2023-06-19T11:17:11;26.80;64.10
31967;DHT22;18496;52.042;6.812;2023-06-19T11:19:19;26.90;62.60
31967;DHT22;18496;52.042;6.812;2023-06-19T11:21:34;26.90;62.20
31967;DHT22;18496;52.042;6.812;2023-06-19T11:23:40;27.00;61.60
31967;DHT22;18496;52.042;6.812;2023-06-19T11:25:51;27.10;61.60
31967;DHT22;18496;52.042;6.812;2023-06-19T11:27:57;27.10;61.20
31967;DHT22;18496;52.042;6.812;2023-06-19T11:30:02;27.20;59.70
31967;DHT22;18496;52.042;6.812;2023-06-19T11:32:13;27.20;59.60
31967;DHT22;18496;52.042;6.812;2023-06-19T11:34:18;27.20;60.10
31967;DHT22;18496;52.042;6.812;2023-06-19T11:36:21;27.20;59.60
31967;DHT22;18496;52.042;6.812;2023-06-19T11:38:26;27.30;60.00
31967;DHT22;18496;52.042;6.812;2023-06-19T11:40:39;27.20;60.30
31967;DHT22;18496;52.042;6.812;2023-06-19T11:42:52;27.30;60.50
31967;DHT22;18496;52.042;6.812;2023-06-19T11:45:00;27.30;60.50
31967;DHT22;18496;52.042;6.812;2023-06-19T11:47:11;27.30;60.30
31967;DHT22;18496;52.042;6.812;2023-06-19T11:49:16;27.20;60.40
31967;DHT22;18496;52.042;6.812;2023-06-19T11:51:23;27.10;60.30
31967;DHT22;18496;52.042;6.812;2023-06-19T11:53:27;27.10;61.10
31967;DHT22;18496;52.042;6.812;2023-06-19T11:55:30;27.20;61.50
31967;DHT22;18496;52.042;6.812;2023-06-19T11:57:34;27.30;61.30
31967;DHT22;18496;52.042;6.812;2023-06-19T11:59:39;27.50;61.80
31967;DHT22;18496;52.042;6.812;2023-06-19T12:01:44;27.60;59.70
31967;DHT22;18496;52.042;6.812;2023-06-19T12:03:48;27.70;59.30
31967;DHT22;18496;52.042;6.812;2023-06-19T12:05:51;27.80;58.80
31967;DHT22;18496;52.042;6.812;2023-06-19T12:07:56;27.90;58.80
31967;DHT22;18496;52.042;6.812;2023-06-19T12:10:00;27.90;58.70
31967;DHT22;18496;52.042;6.812;2023-06-19T12:12:06;28.00;59.30
31967;DHT22;18496;52.042;6.812;2023-06-19T12:14:09;28.10;59.20
31967;DHT22;18496;52.042;6.812;2023-06-19T12:16:14;28.10;58.70
31967;DHT22;18496;52.042;6.812;2023-06-19T12:18:17;28.20;59.30
31967;DHT22;18496;52.042;6.812;2023-06-19T12:20:21;28.30;59.40
31967;DHT22;18496;52.042;6.812;2023-06-19T12:22:26;28.40;58.10
31967;DHT22;18496;52.042;6.812;2023-06-19T12:24:30;28.40;57.50
31967;DHT22;18496;52.042;6.812;2023-06-19T12:26:35;28.40;57.60
31967;DHT22;18496;52.042;6.812;2023-06-19T12:28:42;28.40;58.10
31967;DHT22;18496;52.042;6.812;2023-06-19T12:30:46;28.40;57.70
31967;DHT22;18496;52.042;6.812;2023-06-19T12:32:52;28.50;57.60
31967;DHT22;18496;52.042;6.812;2023-06-19T12:34:55;28.50;57.60
31967;DHT22;18496;52.042;6.812;2023-06-19T12:36:59;28.50;56.90
31967;DHT22;18496;52.042;6.812;2023-06-19T12:39:03;28.50;57.00
31967;DHT22;18496;52.042;6.812;2023-06-19T12:41:11;28.50;56.50
31967;DHT22;18496;52.042;6.812;2023-06-19T12:43:15;28.60;56.60
31967;DHT22;18496;52.042;6.812;2023-06-19T12:45:18;28.60;57.00
31967;DHT22;18496;52.042;6.812;2023-06-19T12:47:22;28.70;57.20
31967;DHT22;18496;52.042;6.812;2023-06-19T12:49:26;28.80;57.00
31967;DHT22;18496;52.042;6.812;2023-06-19T12:51:29;28.80;57.10
31967;DHT22;18496;52.042;6.812;2023-06-19T12:53:33;28.90;56.80
31967;DHT22;18496;52.042;6.812;2023-06-19T12:55:37;28.90;56.80
31967;DHT22;18496;52.042;6.812;2023-06-19T12:57:40;28.90;55.50
31967;DHT22;18496;52.042;6.812;2023-06-19T12:59:44;28.90;55.60
31967;DHT22;18496;52.042;6.812;2023-06-19T13:01:48;28.90;55.90
31967;DHT22;18496;52.042;6.812;2023-06-19T13:03:52;28.90;56.00
31967;DHT22;18496;52.042;6.812;2023-06-19T13:05:56;29.00;56.40
31967;DHT22;18496;52.042;6.812;2023-06-19T13:07:59;29.10;56.00
31967;DHT22;18496;52.042;6.812;2023-06-19T13:10:03;29.20;55.80
31967;DHT22;18496;52.042;6.812;2023-06-19T13:12:09;29.30;56.00
31967;DHT22;18496;52.042;6.812;2023-06-19T13:14:13;29.30;56.00